KRNC/RNC METAR and TAF weather

Enter ICAO airport designator
Station Type Date Time Source
KRNC METAR 2019/09/21 21:15 UTC NOAA

KRNC 212115Z AUTO VRB04KT 10SM CLR 31/11 A3018 RMK A01


Station Type Date Time Source
KRNC Decoded METAR 2019/09/21 21:15 UTC NOAA

Station name not available
Sep 21, 2019 - 05:15 PM EDT / 2019.09.21 2115 UTC
Wind: Variable at 5 MPH (4 KT):0
Visibility: 10 mile(s):0
Sky conditions: clear
Temperature: 87 F (31 C)
Dew Point: 51 F (11 C)
Relative Humidity: 29%
Pressure (altimeter): 30.18 in. Hg (1022 hPa)
ob: KRNC 212115Z AUTO VRB04KT 10SM CLR 31/11 A3018 RMK A01
cycle: 21

Station Type Date Time Source
KRNC TAF 2009/08/31 19:45 UTC NOAA

METAR KRNC 311945Z AUTO 35008KT 10SM CLR 25/12 A3011
RMK AO1 T02500116 $

Example: see airport list